Time,TemperatureF,DewpointF,PressureIn,WindDirection,WindDirectionDegrees,WindSpeedMPH,WindSpeedGustMPH,Humidity,HourlyPrecipIn,Conditions,Clouds,dailyrainin,SoftwareType,DateUTC
2013-02-17 00:02:00,19.0,14.0,-100.00,South,185,2.0,3.0,79,-99.99,,,-99.99,,2013-02-17 06:02:00,
2013-02-17 00:11:00,19.0,14.0,-100.00,South,190,2.0,3.0,79,-99.99,,,-99.99,,2013-02-17 06:11:00,
2013-02-17 00:21:00,19.0,14.0,-100.00,South,190,2.0,3.0,79,-99.99,,,-99.99,,2013-02-17 06:21:00,
2013-02-17 00:42:00,19.0,14.0,-100.00,South,185,3.0,3.0,81,-99.99,,,-99.99,,2013-02-17 06:42:00,
2013-02-17 00:52:00,19.0,14.0,-100.00,South,180,2.0,3.0,82,-99.99,,,-99.99,,2013-02-17 06:52:00,
2013-02-17 01:01:00,19.0,14.0,-100.00,South,180,2.0,3.0,82,-99.99,,,-99.99,,2013-02-17 07:01:00,
2013-02-17 01:11:00,18.0,14.0,-100.00,SSW,205,0.0,0.0,82,-99.99,,,-99.99,,2013-02-17 07:11:00,
2013-02-17 01:21:00,18.0,14.0,-100.00,SW,230,0.0,0.0,83,-99.99,,,-99.99,,2013-02-17 07:21:00,
2013-02-17 01:31:00,18.0,14.0,-100.00,SW,230,0.0,0.0,83,-99.99,,,-99.99,,2013-02-17 07:31:00,
2013-02-17 01:41:00,19.0,14.0,-100.00,SSE,165,0.0,0.0,83,-99.99,,,-99.99,,2013-02-17 07:41:00,
2013-02-17 01:52:00,18.0,14.0,-100.00,SSE,165,0.0,0.0,83,-99.99,,,-99.99,,2013-02-17 07:52:00,
2013-02-17 02:01:00,18.0,14.0,-100.00,SSE,165,0.0,0.0,83,-99.99,,,-99.99,,2013-02-17 08:01:00,
2013-02-17 02:11:00,18.0,13.0,-100.00,SSE,165,0.0,0.0,83,-99.99,,,-99.99,,2013-02-17 08:11:00,
2013-02-17 02:21:00,17.0,13.0,-100.00,SSE,165,0.0,0.0,84,-99.99,,,-99.99,,2013-02-17 08:21:00,
2013-02-17 02:31:00,17.0,13.0,-100.00,SSE,165,0.0,0.0,84,-99.99,,,-99.99,,2013-02-17 08:31:00,
2013-02-17 02:42:00,17.0,13.0,-100.00,South,170,1.0,1.0,85,-99.99,,,-99.99,,2013-02-17 08:42:00,
2013-02-17 02:52:00,17.0,13.0,-100.00,South,170,1.0,1.0,86,-99.99,,,-99.99,,2013-02-17 08:52:00,
2013-02-17 03:02:00,17.0,13.0,-100.00,South,170,1.0,1.0,86,-99.99,,,-99.99,,2013-02-17 09:02:00,
2013-02-17 03:11:00,17.0,13.0,-100.00,South,170,1.0,1.0,87,-99.99,,,-99.99,,2013-02-17 09:11:00,
2013-02-17 03:21:00,16.0,13.0,-100.00,South,180,2.0,3.0,87,-99.99,,,-99.99,,2013-02-17 09:21:00,
2013-02-17 03:31:00,16.0,13.0,-100.00,South,180,2.0,3.0,87,-99.99,,,-99.99,,2013-02-17 09:31:00,
2013-02-17 03:42:00,16.0,14.0,-100.00,South,190,1.0,2.0,88,-99.99,,,-99.99,,2013-02-17 09:42:00,
2013-02-17 03:52:00,16.0,14.0,-100.00,SSW,200,1.0,1.0,89,-99.99,,,-99.99,,2013-02-17 09:52:00,
2013-02-17 04:01:00,16.0,14.0,-100.00,SSW,200,1.0,1.0,89,-99.99,,,-99.99,,2013-02-17 10:01:00,
2013-02-17 04:11:00,16.0,13.0,-100.00,South,185,1.0,2.0,89,-99.99,,,-99.99,,2013-02-17 10:11:00,
2013-02-17 04:21:00,16.0,14.0,-100.00,South,190,2.0,2.0,89,-99.99,,,-99.99,,2013-02-17 10:21:00,
2013-02-17 04:31:00,16.0,14.0,-100.00,South,190,2.0,2.0,89,-99.99,,,-99.99,,2013-02-17 10:31:00,
2013-02-17 04:41:00,16.0,13.0,-100.00,SSW,200,2.0,3.0,89,-99.99,,,-99.99,,2013-02-17 10:41:00,
2013-02-17 04:52:00,16.0,13.0,-100.00,South,185,3.0,3.0,89,-99.99,,,-99.99,,2013-02-17 10:52:00,
2013-02-17 05:01:00,16.0,13.0,-100.00,South,185,3.0,3.0,89,-99.99,,,-99.99,,2013-02-17 11:01:00,
2013-02-17 05:11:00,16.0,13.0,-100.00,South,190,2.0,2.0,89,-99.99,,,-99.99,,2013-02-17 11:11:00,
2013-02-17 05:21:00,16.0,14.0,-100.00,South,185,2.0,2.0,90,-99.99,,,-99.99,,2013-02-17 11:21:00,
2013-02-17 05:32:00,16.0,14.0,-100.00,South,185,2.0,2.0,90,-99.99,,,-99.99,,2013-02-17 11:32:00,
2013-02-17 05:42:00,16.0,14.0,-100.00,SSW,195,2.0,3.0,90,-99.99,,,-99.99,,2013-02-17 11:42:00,
2013-02-17 05:52:00,16.0,14.0,-100.00,South,190,2.0,3.0,90,-99.99,,,-99.99,,2013-02-17 11:52:00,
2013-02-17 06:03:00,16.0,14.0,-100.00,South,190,2.0,3.0,90,-99.99,,,-99.99,,2013-02-17 12:03:00,
2013-02-17 06:11:00,16.0,13.0,-100.00,SSW,195,2.0,2.0,89,-99.99,,,-99.99,,2013-02-17 12:11:00,
2013-02-17 06:22:00,16.0,14.0,-100.00,SSW,195,1.0,1.0,89,-99.99,,,-99.99,,2013-02-17 12:22:00,
2013-02-17 06:32:00,16.0,14.0,-100.00,SSW,195,1.0,1.0,89,-99.99,,,-99.99,,2013-02-17 12:32:00,
2013-02-17 06:42:00,17.0,15.0,-100.00,SW,215,1.0,1.0,89,-99.99,,,-99.99,,2013-02-17 12:42:00,
2013-02-17 06:52:00,18.0,15.0,-100.00,SSW,210,1.0,1.0,89,-99.99,,,-99.99,,2013-02-17 12:52:00,
2013-02-17 07:02:00,18.0,15.0,-100.00,SSW,210,1.0,1.0,89,-99.99,,,-99.99,,2013-02-17 13:02:00,
2013-02-17 07:12:00,18.0,16.0,-100.00,South,190,1.0,1.0,89,-99.99,,,-99.99,,2013-02-17 13:12:00,
2013-02-17 07:22:00,19.0,16.0,-100.00,South,175,1.0,2.0,88,-99.99,,,-99.99,,2013-02-17 13:22:00,
2013-02-17 07:32:00,19.0,16.0,-100.00,South,175,1.0,2.0,88,-99.99,,,-99.99,,2013-02-17 13:32:00,
2013-02-17 07:41:00,19.0,16.0,-100.00,South,175,1.0,2.0,88,-99.99,,,-99.99,,2013-02-17 13:41:00,
2013-02-17 07:52:00,21.0,17.0,-100.00,SSW,205,0.0,0.0,83,-99.99,,,-99.99,,2013-02-17 13:52:00,
2013-02-17 08:01:00,21.0,17.0,-100.00,SSW,205,0.0,0.0,83,-99.99,,,-99.99,,2013-02-17 14:01:00,
2013-02-17 08:11:00,23.0,18.0,-100.00,SW,220,0.0,0.0,81,-99.99,,,-99.99,,2013-02-17 14:11:00,
2013-02-17 08:21:00,24.0,19.0,-100.00,SSW,205,0.0,0.0,80,-99.99,,,-99.99,,2013-02-17 14:21:00,
2013-02-17 08:32:00,24.0,19.0,-100.00,SSW,205,0.0,0.0,80,-99.99,,,-99.99,,2013-02-17 14:32:00,
2013-02-17 08:42:00,25.0,20.0,-100.00,SSW,205,0.0,0.0,79,-99.99,,,-99.99,,2013-02-17 14:42:00,
2013-02-17 08:53:00,27.0,20.0,-100.00,West,260,0.0,0.0,73,-99.99,,,-99.99,,2013-02-17 14:53:00,
2013-02-17 09:02:00,27.0,20.0,-100.00,West,260,0.0,0.0,73,-99.99,,,-99.99,,2013-02-17 15:02:00,
2013-02-17 09:11:00,29.0,20.0,-100.00,SSW,200,0.0,1.0,69,-99.99,,,-99.99,,2013-02-17 15:11:00,
2013-02-17 09:21:00,31.0,18.0,-100.00,SE,125,3.0,4.0,60,-99.99,,,-99.99,,2013-02-17 15:21:00,
2013-02-17 09:32:00,31.0,18.0,-100.00,SE,125,3.0,4.0,60,-99.99,,,-99.99,,2013-02-17 15:32:00,
2013-02-17 09:42:00,32.0,16.0,-100.00,ESE,115,3.0,3.0,52,-99.99,,,-99.99,,2013-02-17 15:42:00,
2013-02-17 09:52:00,34.0,16.0,-100.00,South,175,0.0,1.0,49,-99.99,,,-99.99,,2013-02-17 15:52:00,
2013-02-17 10:01:00,34.0,16.0,-100.00,South,175,0.0,1.0,49,-99.99,,,-99.99,,2013-02-17 16:01:00,
2013-02-17 10:11:00,34.0,14.0,-100.00,SE,145,6.0,10.0,42,-99.99,,,-99.99,,2013-02-17 16:11:00,
2013-02-17 10:21:00,35.0,12.0,-100.00,SE,135,9.0,10.0,39,-99.99,,,-99.99,,2013-02-17 16:21:00,
2013-02-17 10:32:00,35.0,12.0,-100.00,SE,135,9.0,10.0,39,-99.99,,,-99.99,,2013-02-17 16:32:00,
2013-02-17 10:42:00,35.0,11.0,-100.00,SE,125,4.0,6.0,36,-99.99,,,-99.99,,2013-02-17 16:42:00,
2013-02-17 10:52:00,37.0,11.0,-100.00,SE,140,6.0,10.0,34,-99.99,,,-99.99,,2013-02-17 16:52:00,
2013-02-17 11:02:00,37.0,11.0,-100.00,SE,140,6.0,10.0,34,-99.99,,,-99.99,,2013-02-17 17:02:00,
2013-02-17 11:11:00,38.0,10.0,-100.00,SSE,155,3.0,6.0,32,-99.99,,,-99.99,,2013-02-17 17:11:00,
2013-02-17 11:21:00,39.0,11.0,-100.00,SE,140,10.0,12.0,31,-99.99,,,-99.99,,2013-02-17 17:21:00,
2013-02-17 11:32:00,39.0,11.0,-100.00,SE,140,10.0,12.0,31,-99.99,,,-99.99,,2013-02-17 17:32:00,
2013-02-17 11:42:00,39.0,11.0,-100.00,ESE,110,3.0,6.0,31,-99.99,,,-99.99,,2013-02-17 17:42:00,
2013-02-17 11:52:00,38.0,11.0,-100.00,SE,130,9.0,10.0,32,-99.99,,,-99.99,,2013-02-17 17:52:00,
2013-02-17 12:02:00,38.0,11.0,-100.00,SE,130,9.0,10.0,32,-99.99,,,-99.99,,2013-02-17 18:02:00,
2013-02-17 12:11:00,40.0,14.0,-100.00,ESE,115,3.0,6.0,33,-99.99,,,-99.99,,2013-02-17 18:11:00,
2013-02-17 12:22:00,41.0,14.0,-100.00,SE,140,9.0,11.0,33,-99.99,,,-99.99,,2013-02-17 18:22:00,
2013-02-17 12:33:00,41.0,14.0,-100.00,SE,140,9.0,11.0,33,-99.99,,,-99.99,,2013-02-17 18:33:00,
2013-02-17 12:42:00,41.0,14.0,-100.00,SSE,155,9.0,16.0,33,-99.99,,,-99.99,,2013-02-17 18:42:00,
2013-02-17 12:52:00,42.0,15.0,-100.00,South,185,4.0,10.0,33,-99.99,,,-99.99,,2013-02-17 18:52:00,
2013-02-17 13:01:00,42.0,15.0,-100.00,South,185,4.0,10.0,33,-99.99,,,-99.99,,2013-02-17 19:01:00,
2013-02-17 13:11:00,42.0,16.0,-100.00,South,185,8.0,12.0,34,-99.99,,,-99.99,,2013-02-17 19:11:00,
2013-02-17 13:21:00,43.0,17.0,-100.00,SSE,155,11.0,18.0,34,-99.99,,,-99.99,,2013-02-17 19:21:00,
2013-02-17 13:32:00,43.0,17.0,-100.00,SSE,155,11.0,18.0,34,-99.99,,,-99.99,,2013-02-17 19:32:00,
2013-02-17 13:42:00,43.0,18.0,-100.00,SSE,165,8.0,14.0,35,-99.99,,,-99.99,,2013-02-17 19:42:00,
2013-02-17 13:52:00,44.0,18.0,-100.00,South,170,8.0,10.0,35,-99.99,,,-99.99,,2013-02-17 19:52:00,
2013-02-17 14:02:00,44.0,18.0,-100.00,South,170,8.0,10.0,35,-99.99,,,-99.99,,2013-02-17 20:02:00,
2013-02-17 14:11:00,44.0,18.0,-100.00,South,190,12.0,17.0,35,-99.99,,,-99.99,,2013-02-17 20:11:00,
2013-02-17 14:21:00,45.0,19.0,-100.00,South,170,4.0,6.0,34,-99.99,,,-99.99,,2013-02-17 20:21:00,
2013-02-17 14:32:00,45.0,19.0,-100.00,South,170,4.0,6.0,34,-99.99,,,-99.99,,2013-02-17 20:32:00,
2013-02-17 14:42:00,45.0,18.0,-100.00,ESE,110,6.0,9.0,33,-99.99,,,-99.99,,2013-02-17 20:42:00,
2013-02-17 14:52:00,45.0,17.0,-100.00,South,180,9.0,12.0,32,-99.99,,,-99.99,,2013-02-17 20:52:00,
2013-02-17 15:02:00,45.0,17.0,-100.00,South,180,9.0,12.0,32,-99.99,,,-99.99,,2013-02-17 21:02:00,
2013-02-17 15:11:00,46.0,17.0,-100.00,SSE,155,11.0,17.0,32,-99.99,,,-99.99,,2013-02-17 21:11:00,
2013-02-17 15:21:00,47.0,18.0,-100.00,SSE,155,9.0,11.0,32,-99.99,,,-99.99,,2013-02-17 21:21:00,
2013-02-17 15:32:00,47.0,18.0,-100.00,SSE,155,9.0,11.0,32,-99.99,,,-99.99,,2013-02-17 21:32:00,
2013-02-17 15:42:00,47.0,18.0,-100.00,SSE,165,10.0,14.0,31,-99.99,,,-99.99,,2013-02-17 21:42:00,
2013-02-17 15:53:00,46.0,17.0,-100.00,SSE,160,10.0,18.0,31,-99.99,,,-99.99,,2013-02-17 21:53:00,
2013-02-17 16:01:00,46.0,17.0,-100.00,SSE,160,10.0,18.0,31,-99.99,,,-99.99,,2013-02-17 22:01:00,
2013-02-17 16:12:00,46.0,17.0,-100.00,East,100,11.0,16.0,32,-99.99,,,-99.99,,2013-02-17 22:12:00,
2013-02-17 16:22:00,46.0,18.0,-100.00,SSE,165,12.0,16.0,32,-99.99,,,-99.99,,2013-02-17 22:22:00,
2013-02-17 16:32:00,46.0,18.0,-100.00,SSE,165,12.0,16.0,32,-99.99,,,-99.99,,2013-02-17 22:32:00,
2013-02-17 16:42:00,46.0,18.0,-100.00,SE,145,6.0,11.0,32,-99.99,,,-99.99,,2013-02-17 22:42:00,
2013-02-17 16:52:00,46.0,18.0,-100.00,SE,145,14.0,17.0,32,-99.99,,,-99.99,,2013-02-17 22:52:00,
2013-02-17 17:02:00,46.0,18.0,-100.00,SE,145,14.0,17.0,32,-99.99,,,-99.99,,2013-02-17 23:02:00,
2013-02-17 17:11:00,46.0,18.0,-100.00,South,180,6.0,14.0,32,-99.99,,,-99.99,,2013-02-17 23:11:00,
2013-02-17 17:21:00,45.0,18.0,-100.00,SE,135,4.0,8.0,33,-99.99,,,-99.99,,2013-02-17 23:21:00,
2013-02-17 17:32:00,45.0,18.0,-100.00,SE,135,4.0,8.0,33,-99.99,,,-99.99,,2013-02-17 23:32:00,
2013-02-17 17:42:00,45.0,18.0,-100.00,ESE,115,3.0,6.0,33,-99.99,,,-99.99,,2013-02-17 23:42:00,
2013-02-17 17:52:00,44.0,18.0,-100.00,SE,140,6.0,6.0,34,-99.99,,,-99.99,,2013-02-17 23:52:00,
2013-02-17 18:01:00,44.0,18.0,-100.00,SE,140,6.0,6.0,34,-99.99,,,-99.99,,2013-02-18 00:01:00,
2013-02-17 18:11:00,44.0,18.0,-100.00,SSE,160,4.0,8.0,35,-99.99,,,-99.99,,2013-02-18 00:11:00,
2013-02-17 18:22:00,43.0,18.0,-100.00,SE,140,6.0,6.0,36,-99.99,,,-99.99,,2013-02-18 00:22:00,
2013-02-17 18:32:00,43.0,18.0,-100.00,SE,140,6.0,6.0,36,-99.99,,,-99.99,,2013-02-18 00:32:00,
2013-02-17 18:41:00,42.0,17.0,-100.00,ESE,120,6.0,9.0,36,-99.99,,,-99.99,,2013-02-18 00:41:00,
2013-02-17 18:52:00,42.0,18.0,-100.00,SE,145,6.0,8.0,37,-99.99,,,-99.99,,2013-02-18 00:52:00,
2013-02-17 19:01:00,42.0,18.0,-100.00,SE,145,6.0,8.0,37,-99.99,,,-99.99,,2013-02-18 01:01:00,
2013-02-17 19:12:00,42.0,18.0,-100.00,SE,140,6.0,10.0,38,-99.99,,,-99.99,,2013-02-18 01:12:00,
2013-02-17 19:21:00,41.0,18.0,-100.00,SE,135,6.0,6.0,38,-99.99,,,-99.99,,2013-02-18 01:21:00,
2013-02-17 19:32:00,41.0,18.0,-100.00,SE,135,6.0,6.0,38,-99.99,,,-99.99,,2013-02-18 01:32:00,
2013-02-17 19:41:00,41.0,18.0,-100.00,SE,135,6.0,6.0,38,-99.99,,,-99.99,,2013-02-18 01:41:00,
2013-02-17 19:52:00,41.0,18.0,-100.00,SE,130,3.0,6.0,39,-99.99,,,-99.99,,2013-02-18 01:52:00,
2013-02-17 20:01:00,41.0,18.0,-100.00,SE,130,3.0,6.0,39,-99.99,,,-99.99,,2013-02-18 02:01:00,
2013-02-17 20:11:00,40.0,18.0,-100.00,SE,125,6.0,9.0,39,-99.99,,,-99.99,,2013-02-18 02:11:00,
2013-02-17 20:21:00,40.0,18.0,-100.00,SE,125,6.0,9.0,40,-99.99,,,-99.99,,2013-02-18 02:21:00,
2013-02-17 20:32:00,40.0,18.0,-100.00,SE,125,6.0,9.0,40,-99.99,,,-99.99,,2013-02-18 02:32:00,
2013-02-17 20:41:00,40.0,18.0,-100.00,SE,135,6.0,9.0,40,-99.99,,,-99.99,,2013-02-18 02:41:00,
2013-02-17 20:52:00,40.0,18.0,-100.00,SSE,155,9.0,12.0,40,-99.99,,,-99.99,,2013-02-18 02:52:00,
2013-02-17 21:01:00,40.0,18.0,-100.00,SSE,155,9.0,12.0,40,-99.99,,,-99.99,,2013-02-18 03:01:00,
2013-02-17 21:11:00,40.0,18.0,-100.00,SE,135,6.0,12.0,40,-99.99,,,-99.99,,2013-02-18 03:11:00,
2013-02-17 21:21:00,40.0,18.0,-100.00,SE,145,9.0,12.0,40,-99.99,,,-99.99,,2013-02-18 03:21:00,
2013-02-17 21:32:00,40.0,18.0,-100.00,SE,145,9.0,12.0,40,-99.99,,,-99.99,,2013-02-18 03:32:00,
2013-02-17 21:42:00,40.0,18.0,-100.00,SSE,155,9.0,12.0,40,-99.99,,,-99.99,,2013-02-18 03:42:00,
2013-02-17 21:52:00,40.0,18.0,-100.00,SSE,165,6.0,8.0,40,-99.99,,,-99.99,,2013-02-18 03:52:00,
2013-02-17 22:01:00,40.0,18.0,-100.00,SSE,165,6.0,8.0,40,-99.99,,,-99.99,,2013-02-18 04:01:00,
2013-02-17 22:11:00,40.0,18.0,-100.00,SE,145,11.0,14.0,40,-99.99,,,-99.99,,2013-02-18 04:11:00,
2013-02-17 22:21:00,40.0,18.0,-100.00,SSE,150,9.0,14.0,40,-99.99,,,-99.99,,2013-02-18 04:21:00,
2013-02-17 22:32:00,40.0,18.0,-100.00,SSE,150,9.0,14.0,40,-99.99,,,-99.99,,2013-02-18 04:32:00,
2013-02-17 22:42:00,40.0,18.0,-100.00,SE,135,6.0,10.0,40,-99.99,,,-99.99,,2013-02-18 04:42:00,
2013-02-17 22:52:00,41.0,19.0,-100.00,SE,145,14.0,19.0,40,-99.99,,,-99.99,,2013-02-18 04:52:00,
2013-02-17 23:02:00,41.0,19.0,-100.00,SE,145,14.0,19.0,40,-99.99,,,-99.99,,2013-02-18 05:02:00,
2013-02-17 23:11:00,42.0,19.0,-100.00,South,170,11.0,18.0,40,-99.99,,,-99.99,,2013-02-18 05:11:00,
2013-02-17 23:21:00,42.0,19.0,-100.00,SSE,150,8.0,10.0,40,-99.99,,,-99.99,,2013-02-18 05:21:00,
2013-02-17 23:31:00,42.0,19.0,-100.00,SSE,150,8.0,10.0,40,-99.99,,,-99.99,,2013-02-18 05:31:00,
2013-02-17 23:41:00,42.0,19.0,-100.00,SE,145,12.0,16.0,40,-99.99,,,-99.99,,2013-02-18 05:41:00,
2013-02-17 23:52:00,42.0,19.0,-100.00,SSE,160,10.0,14.0,40,-99.99,,,-99.99,,2013-02-18 05:52:00,